createdAt,value
2023-02-01T00:01:28.041Z,1.64
2023-02-01T00:03:56.697Z,1.64
2023-02-01T00:06:25.235Z,1.65
2023-02-01T00:08:55.313Z,1.67
2023-02-01T00:11:25.287Z,1.69
2023-02-01T00:13:54.148Z,1.72
2023-02-01T00:16:26.878Z,1.75
2023-02-01T00:19:02.893Z,1.81
2023-02-01T00:21:32.336Z,1.85
2023-02-01T00:24:01.176Z,1.90
2023-02-01T00:26:42.527Z,1.95
2023-02-01T00:29:15.931Z,2.04
2023-02-01T00:31:45.370Z,2.08
2023-02-01T00:34:17.116Z,2.11
2023-02-01T00:36:46.545Z,2.14
2023-02-01T00:39:16.194Z,2.17
2023-02-01T00:41:44.792Z,2.16
2023-02-01T00:44:13.360Z,2.14
2023-02-01T00:46:41.882Z,2.11
2023-02-01T00:49:10.288Z,2.08
2023-02-01T00:51:38.660Z,2.05
2023-02-01T00:54:07.051Z,2.04
2023-02-01T00:56:35.385Z,2.04
2023-02-01T00:59:03.792Z,2.05
2023-02-01T01:01:32.131Z,2.05
2023-02-01T01:04:00.744Z,2.06
2023-02-01T01:06:33.835Z,2.07
2023-02-01T01:09:07.851Z,2.09
2023-02-01T01:11:39.342Z,2.11
2023-02-01T01:14:11.786Z,2.12
2023-02-01T01:16:40.112Z,2.13
2023-02-01T01:19:08.544Z,2.16
2023-02-01T01:21:36.862Z,2.18
2023-02-01T01:24:05.676Z,2.22
2023-02-01T01:26:34.133Z,2.26
2023-02-01T01:29:02.583Z,2.30
2023-02-01T01:31:31.820Z,2.34
2023-02-01T01:34:00.594Z,2.38
2023-02-01T01:36:30.540Z,2.43
2023-02-01T01:38:58.958Z,2.46
2023-02-01T01:41:32.262Z,2.47
2023-02-01T01:44:06.712Z,2.51
2023-02-01T01:46:41.651Z,2.53
2023-02-01T01:49:26.656Z,2.42
2023-02-01T01:52:03.672Z,2.29
2023-02-01T01:54:52.539Z,2.19
2023-02-01T01:57:39.470Z,2.09
2023-02-01T02:00:16.817Z,1.97
2023-02-01T02:02:52.177Z,1.88
2023-02-01T02:05:21.025Z,1.84
2023-02-01T02:07:53.893Z,1.82
2023-02-01T02:10:42.233Z,1.82
2023-02-01T02:13:11.575Z,1.83
2023-02-01T02:15:49.088Z,1.84
2023-02-01T02:18:32.391Z,1.86
2023-02-01T02:21:29.041Z,1.90
2023-02-01T02:24:22.974Z,1.93
2023-02-01T02:27:39.552Z,1.95
2023-02-01T02:30:37.189Z,1.98
2023-02-01T02:33:50.140Z,2.01
2023-02-01T02:36:46.288Z,2.05
2023-02-01T02:39:50.300Z,2.09
2023-02-01T02:42:50.480Z,2.12
2023-02-01T02:46:09.570Z,2.14
2023-02-01T02:48:47.628Z,2.17
2023-02-01T02:51:45.023Z,2.19
2023-02-01T02:54:38.304Z,2.23
2023-02-01T02:57:30.438Z,2.27
2023-02-01T03:00:24.948Z,2.32
2023-02-01T03:03:12.899Z,2.37
2023-02-01T03:05:53.256Z,2.43
2023-02-01T03:08:28.454Z,2.48
2023-02-01T03:11:08.287Z,2.52
2023-02-01T03:13:50.148Z,2.56
2023-02-01T03:16:48.120Z,2.58
2023-02-01T03:19:33.276Z,2.60
2023-02-01T03:22:07.447Z,2.63
2023-02-01T03:24:42.305Z,2.67
2023-02-01T03:27:33.756Z,2.71
2023-02-01T03:30:21.897Z,2.75
2023-02-01T03:33:02.096Z,2.78
2023-02-01T03:35:51.059Z,2.80
2023-02-01T03:38:28.237Z,2.82
2023-02-01T03:41:19.176Z,2.83
2023-02-01T03:44:02.276Z,2.83
2023-02-01T03:46:39.264Z,2.82
2023-02-01T03:49:14.154Z,2.83
2023-02-01T03:51:42.622Z,2.84
2023-02-01T03:54:15.915Z,2.84
2023-02-01T03:56:48.438Z,2.85
2023-02-01T03:59:16.853Z,2.84
2023-02-01T04:01:45.185Z,2.84
2023-02-01T04:04:20.857Z,2.85
2023-02-01T04:06:52.858Z,2.86
2023-02-01T04:09:21.306Z,2.88
2023-02-01T04:11:49.635Z,2.89
2023-02-01T04:14:18.125Z,2.91
2023-02-01T04:16:46.873Z,2.91
2023-02-01T04:19:15.648Z,2.91
2023-02-01T04:21:43.998Z,2.90
2023-02-01T04:24:12.335Z,2.88
2023-02-01T04:26:40.735Z,2.87
2023-02-01T04:29:11.250Z,2.84
2023-02-01T04:31:39.769Z,2.83
2023-02-01T04:34:08.227Z,2.82
2023-02-01T04:36:36.629Z,2.81
2023-02-01T04:39:05.020Z,2.80
2023-02-01T04:41:33.405Z,2.81
2023-02-01T04:44:02.033Z,2.82
2023-02-01T04:46:30.478Z,2.82
2023-02-01T04:48:58.872Z,2.83
2023-02-01T04:51:27.261Z,2.85
2023-02-01T04:53:56.837Z,2.88
2023-02-01T04:56:25.236Z,2.90
2023-02-01T04:58:53.769Z,2.93
2023-02-01T05:01:22.804Z,2.96
2023-02-01T05:03:51.907Z,3.02
2023-02-01T05:06:20.239Z,3.07
2023-02-01T05:08:48.591Z,3.11
2023-02-01T05:11:35.241Z,3.16
2023-02-01T05:14:03.591Z,3.21
2023-02-01T05:16:32.315Z,3.25
2023-02-01T05:19:00.846Z,3.29
2023-02-01T05:21:29.158Z,3.35
2023-02-01T05:24:20.776Z,3.39
2023-02-01T05:26:49.976Z,3.44
2023-02-01T05:29:18.901Z,3.47
2023-02-01T05:31:48.332Z,3.50
2023-02-01T05:34:17.644Z,3.53
2023-02-01T05:36:46.000Z,3.56
2023-02-01T05:39:14.402Z,3.61
2023-02-01T05:41:42.788Z,3.64
2023-02-01T05:44:12.580Z,3.65
2023-02-01T05:46:41.723Z,3.68
2023-02-01T05:49:10.420Z,3.70
2023-02-01T05:51:38.981Z,3.71
2023-02-01T05:54:07.341Z,3.71
2023-02-01T05:56:35.678Z,3.70
2023-02-01T05:59:04.020Z,3.70
2023-02-01T06:01:32.373Z,3.70
2023-02-01T06:04:00.779Z,3.71
2023-02-01T06:06:29.409Z,3.71
2023-02-01T06:08:57.758Z,3.73
2023-02-01T06:11:33.496Z,3.74
2023-02-01T06:14:01.921Z,3.77
2023-02-01T06:16:30.233Z,3.78
2023-02-01T06:18:59.208Z,3.81
2023-02-01T06:21:27.698Z,3.83
2023-02-01T06:23:58.555Z,3.84
2023-02-01T06:26:27.322Z,3.86
2023-02-01T06:28:56.331Z,3.88
2023-02-01T06:31:26.244Z,3.89
2023-02-01T06:33:54.685Z,3.90
2023-02-01T06:36:23.032Z,3.92
2023-02-01T06:38:51.409Z,3.94
2023-02-01T06:41:21.559Z,3.95
2023-02-01T06:43:50.182Z,3.97
2023-02-01T06:46:19.077Z,3.99
2023-02-01T06:48:47.490Z,4.02
2023-02-01T06:51:27.345Z,4.05
2023-02-01T06:53:55.852Z,4.08
2023-02-01T06:56:25.397Z,4.10
2023-02-01T06:58:54.298Z,4.11
2023-02-01T07:01:22.747Z,4.12
2023-02-01T07:03:54.643Z,4.15
2023-02-01T07:06:23.085Z,4.17
2023-02-01T07:08:51.381Z,4.21
2023-02-01T07:11:20.067Z,4.23
2023-02-01T07:13:49.192Z,4.25
2023-02-01T07:16:20.868Z,4.26
2023-02-01T07:18:52.643Z,4.27
2023-02-01T07:21:21.398Z,4.29
2023-02-01T07:23:49.750Z,4.32
2023-02-01T07:26:18.129Z,4.34
2023-02-01T07:28:47.772Z,4.36
2023-02-01T07:31:21.755Z,4.37
2023-02-01T07:33:53.869Z,4.40
2023-02-01T07:36:22.295Z,4.42
2023-02-01T07:38:52.877Z,4.42
2023-02-01T07:41:21.985Z,4.45
2023-02-01T07:43:53.565Z,4.45
2023-02-01T07:46:22.406Z,4.47
2023-02-01T07:48:50.769Z,4.48
2023-02-01T07:51:19.172Z,4.49
2023-02-01T07:53:47.593Z,4.51
2023-02-01T07:56:20.264Z,4.52
2023-02-01T07:58:54.139Z,4.54
2023-02-01T08:01:26.393Z,4.56
2023-02-01T08:04:01.186Z,4.59
2023-02-01T08:06:34.801Z,4.61
2023-02-01T08:09:04.555Z,4.64
2023-02-01T08:11:33.324Z,4.68
2023-02-01T08:14:01.740Z,4.71
2023-02-01T08:16:30.352Z,4.73
2023-02-01T08:18:58.741Z,4.75
2023-02-01T08:21:37.870Z,4.76
2023-02-01T08:24:10.230Z,4.78
2023-02-01T08:26:39.041Z,4.80
2023-02-01T08:29:11.509Z,4.82
2023-02-01T08:31:41.924Z,4.84
2023-02-01T08:34:13.037Z,4.87
2023-02-01T08:36:42.044Z,4.91
2023-02-01T08:39:12.560Z,4.94
2023-02-01T08:41:43.128Z,4.97
2023-02-01T08:44:11.734Z,4.99
2023-02-01T08:46:40.716Z,5.03
2023-02-01T08:49:11.248Z,5.05
2023-02-01T08:51:39.826Z,5.08
2023-02-01T08:54:08.256Z,5.10
2023-02-01T08:56:36.623Z,5.11
2023-02-01T08:59:05.575Z,5.12
2023-02-01T09:01:33.959Z,5.14
2023-02-01T09:04:03.281Z,5.14
2023-02-01T09:06:32.543Z,5.16
2023-02-01T09:09:00.946Z,5.17
2023-02-01T09:11:29.400Z,5.18
2023-02-01T09:13:57.825Z,5.17
2023-02-01T09:16:26.751Z,5.15
2023-02-01T09:19:14.549Z,5.13
2023-02-01T09:21:44.267Z,5.09
2023-02-01T09:24:13.280Z,5.05
2023-02-01T09:26:41.679Z,5.04
2023-02-01T09:29:13.130Z,5.04
2023-02-01T09:31:44.107Z,5.03
2023-02-01T09:34:18.471Z,5.07
2023-02-01T09:36:46.864Z,5.09
2023-02-01T09:39:15.224Z,5.11
2023-02-01T09:42:06.679Z,5.16
2023-02-01T09:45:13.166Z,5.21
2023-02-01T09:47:50.953Z,5.26
2023-02-01T09:50:42.895Z,5.31
2023-02-01T09:53:23.607Z,5.35
2023-02-01T09:55:59.591Z,5.39
2023-02-01T09:58:44.695Z,5.41
2023-02-01T10:01:25.727Z,5.44
2023-02-01T10:04:08.595Z,5.46
2023-02-01T10:07:20.602Z,5.48
2023-02-01T10:10:02.269Z,5.52
2023-02-01T10:13:10.177Z,5.56
2023-02-01T10:16:12.126Z,5.58
2023-02-01T10:19:05.185Z,5.58
2023-02-01T10:21:52.441Z,5.58
2023-02-01T10:24:58.876Z,5.61
2023-02-01T10:27:37.529Z,5.67
2023-02-01T10:30:34.619Z,5.73
2023-02-01T10:33:31.131Z,5.79
2023-02-01T10:36:17.989Z,5.86
2023-02-01T10:38:47.327Z,5.91
2023-02-01T10:41:24.423Z,5.92
2023-02-01T10:43:57.909Z,5.92
2023-02-01T10:46:26.981Z,5.94
2023-02-01T10:49:00.814Z,5.96
2023-02-01T10:52:15.559Z,5.98
2023-02-01T10:54:44.292Z,5.94
2023-02-01T10:57:30.615Z,5.91
2023-02-01T10:59:58.944Z,5.88
2023-02-01T11:02:35.423Z,5.87
2023-02-01T11:05:13.388Z,5.84
2023-02-01T11:07:49.521Z,5.82
2023-02-01T11:10:42.412Z,5.79
2023-02-01T11:13:19.458Z,5.75
2023-02-01T11:15:57.296Z,5.71
2023-02-01T11:18:32.905Z,5.69
2023-02-01T11:21:03.083Z,5.65
2023-02-01T11:23:34.640Z,5.62
2023-02-01T11:26:13.796Z,5.58
2023-02-01T11:28:53.146Z,5.53
2023-02-01T11:31:23.285Z,5.49
2023-02-01T11:33:59.241Z,5.44
2023-02-01T11:36:32.712Z,5.37
2023-02-01T11:39:16.235Z,5.32
2023-02-01T11:42:02.904Z,5.25
2023-02-01T11:44:41.680Z,5.20
2023-02-01T11:47:29.038Z,5.15
2023-02-01T11:50:01.936Z,5.06
2023-02-01T11:52:43.136Z,4.97
2023-02-01T11:55:42.257Z,4.87
2023-02-01T11:58:44.298Z,4.80
2023-02-01T12:01:27.964Z,4.75
2023-02-01T12:04:56.257Z,4.70
2023-02-01T12:07:53.241Z,4.63
2023-02-01T12:10:43.810Z,4.56
2023-02-01T12:13:49.988Z,4.51
2023-02-01T12:16:57.115Z,4.46
2023-02-01T12:19:54.920Z,4.45
2023-02-01T12:22:50.488Z,4.44
2023-02-01T12:25:43.840Z,4.44
2023-02-01T12:28:49.455Z,4.44
2023-02-01T12:31:27.804Z,4.43
2023-02-01T12:34:31.577Z,4.43
2023-02-01T12:37:23.932Z,4.43
2023-02-01T12:40:13.772Z,4.44
2023-02-01T12:42:58.089Z,4.45
2023-02-01T12:45:38.277Z,4.44
2023-02-01T12:48:27.654Z,4.42
2023-02-01T12:51:03.383Z,4.38
2023-02-01T12:53:47.854Z,4.33
2023-02-01T12:56:27.062Z,4.27
2023-02-01T12:59:02.071Z,4.22
2023-02-01T13:01:57.470Z,4.17
2023-02-01T13:04:53.756Z,4.16
2023-02-01T13:07:44.641Z,4.21
2023-02-01T13:10:31.378Z,4.27
2023-02-01T13:13:18.351Z,4.36
2023-02-01T13:16:16.370Z,4.46
2023-02-01T13:18:52.481Z,4.62
2023-02-01T13:21:30.330Z,4.81
2023-02-01T13:23:59.591Z,5.04
2023-02-01T13:26:29.388Z,5.22
2023-02-01T13:29:06.241Z,5.32
2023-02-01T13:36:31.520Z,5.39
2023-02-01T13:39:39.025Z,5.37
2023-02-01T13:42:35.394Z,5.49
2023-02-01T13:45:18.766Z,5.50
2023-02-01T13:47:54.227Z,5.46
2023-02-01T13:50:55.375Z,5.40
2023-02-01T13:53:44.665Z,5.26
2023-02-01T13:56:24.081Z,5.16
2023-02-01T13:58:55.085Z,5.02
2023-02-01T14:01:36.117Z,4.89
2023-02-01T14:06:58.186Z,4.70
2023-02-01T14:09:43.249Z,4.77
2023-02-01T14:12:45.524Z,4.87
2023-02-01T14:15:23.951Z,4.91
2023-02-01T14:17:54.237Z,4.85
2023-02-01T14:20:50.178Z,4.77
2023-02-01T14:23:22.389Z,4.71
2023-02-01T14:29:59.409Z,4.62
2023-02-01T14:32:42.069Z,4.51
2023-02-01T14:35:26.429Z,4.45
2023-02-01T14:38:08.943Z,4.39
2023-02-01T14:41:15.681Z,4.34
2023-02-01T14:47:35.173Z,4.61
2023-02-01T14:50:08.390Z,4.82
2023-02-01T14:53:12.946Z,4.87
2023-02-01T14:56:07.372Z,4.79
2023-02-01T14:58:54.605Z,4.72
2023-02-01T15:01:36.350Z,4.69
2023-02-01T15:04:19.643Z,4.69
2023-02-01T15:06:58.499Z,4.66
2023-02-01T15:09:36.579Z,4.64
2023-02-01T15:12:15.695Z,4.62
2023-02-01T15:19:11.457Z,4.54
2023-02-01T15:22:01.163Z,4.43
2023-02-01T15:27:38.226Z,4.26
2023-02-01T15:30:33.819Z,4.20
2023-02-01T15:33:23.499Z,4.12
2023-02-01T15:35:57.458Z,4.05
2023-02-01T15:38:25.944Z,3.99
2023-02-01T15:41:21.948Z,3.93
2023-02-01T15:43:59.352Z,3.89
2023-02-01T15:46:45.790Z,3.87
2023-02-01T15:49:31.290Z,3.84
2023-02-01T15:52:03.056Z,3.82
2023-02-01T15:54:55.494Z,3.80
2023-02-01T15:57:36.270Z,3.81
2023-02-01T16:00:23.653Z,3.83
2023-02-01T16:02:59.083Z,3.85
2023-02-01T16:05:27.485Z,3.86
2023-02-01T16:08:11.638Z,3.86
2023-02-01T16:10:43.999Z,3.86
2023-02-01T16:13:14.463Z,3.83
2023-02-01T16:15:43.198Z,3.79
2023-02-01T16:18:13.683Z,3.74
2023-02-01T16:20:43.601Z,3.67
2023-02-01T16:23:12.039Z,3.61
2023-02-01T16:25:42.406Z,3.57
2023-02-01T16:28:13.260Z,3.51
2023-02-01T16:30:41.829Z,3.47
2023-02-01T16:36:14.799Z,3.38
2023-02-01T16:38:43.548Z,3.36
2023-02-01T16:41:20.830Z,3.34
2023-02-01T16:43:52.528Z,3.34
2023-02-01T16:46:27.369Z,3.34
2023-02-01T16:49:00.046Z,3.33
2023-02-01T16:51:33.888Z,3.34
2023-02-01T16:54:03.349Z,3.34
2023-02-01T16:56:34.725Z,3.35
2023-02-01T16:59:03.794Z,3.35
2023-02-01T17:01:32.539Z,3.35
2023-02-01T17:04:01.683Z,3.36
2023-02-01T17:06:33.437Z,3.36
2023-02-01T17:09:04.150Z,3.37
2023-02-01T17:11:32.965Z,3.37
2023-02-01T17:14:23.501Z,3.37
2023-02-01T17:16:52.866Z,3.38
2023-02-01T17:19:24.678Z,3.38
2023-02-01T17:21:56.851Z,3.39
2023-02-01T17:24:39.212Z,3.42
2023-02-01T17:27:31.033Z,3.45
2023-02-01T17:30:04.237Z,3.47
2023-02-01T17:32:40.711Z,3.49
2023-02-01T17:35:26.367Z,3.50
2023-02-01T17:37:57.011Z,3.53
2023-02-01T17:40:26.210Z,3.54
2023-02-01T17:42:57.857Z,3.55
2023-02-01T17:46:06.787Z,3.57
2023-02-01T17:48:35.553Z,3.58
2023-02-01T17:51:05.327Z,3.59
2023-02-01T17:53:36.426Z,3.59
2023-02-01T17:56:05.622Z,3.61
2023-02-01T17:58:35.026Z,3.62
2023-02-01T18:01:12.791Z,3.64
2023-02-01T18:03:42.091Z,3.67
2023-02-01T18:06:15.321Z,3.72
2023-02-01T18:08:46.780Z,3.77
2023-02-01T18:11:18.648Z,3.82
2023-02-01T18:13:47.975Z,3.85
2023-02-01T18:16:39.387Z,3.89
2023-02-01T18:19:08.688Z,3.96
2023-02-01T18:21:44.469Z,4.03
2023-02-01T18:24:15.007Z,4.09
2023-02-01T18:26:43.730Z,4.14
2023-02-01T18:29:12.782Z,4.19
2023-02-01T18:31:58.742Z,4.23
2023-02-01T18:34:27.393Z,4.24
2023-02-01T18:36:55.798Z,4.26
2023-02-01T18:39:24.304Z,4.27
2023-02-01T18:41:53.175Z,4.30
2023-02-01T18:44:22.259Z,4.32
2023-02-01T18:46:51.211Z,4.34
2023-02-01T18:49:19.854Z,4.29
2023-02-01T18:51:48.814Z,4.19
2023-02-01T18:54:19.079Z,4.08
2023-02-01T18:56:49.432Z,3.97
2023-02-01T18:59:18.735Z,3.90
2023-02-01T19:01:47.633Z,3.83
2023-02-01T19:04:23.731Z,3.77
2023-02-01T19:06:54.155Z,3.70
2023-02-01T19:09:22.701Z,3.65
2023-02-01T19:11:51.610Z,3.62
2023-02-01T19:14:22.896Z,3.60
2023-02-01T19:16:54.844Z,3.58
2023-02-01T19:19:25.681Z,3.57
2023-02-01T19:22:06.614Z,3.56
2023-02-01T19:24:35.306Z,3.55
2023-02-01T19:27:04.168Z,3.55
2023-02-01T19:29:32.855Z,3.55
2023-02-01T19:32:01.480Z,3.56
2023-02-01T19:34:31.984Z,3.57
2023-02-01T19:37:01.563Z,3.59
2023-02-01T19:43:13.128Z,3.64
2023-02-01T19:46:17.153Z,3.69
2023-02-01T19:48:46.587Z,3.73
2023-02-01T19:51:15.772Z,3.78
2023-02-01T19:53:45.460Z,3.82
2023-02-01T19:56:42.261Z,3.87
2023-02-01T19:59:13.298Z,3.93
2023-02-01T20:01:47.851Z,3.96
2023-02-01T20:04:17.753Z,4.02
2023-02-01T20:06:50.716Z,4.07
2023-02-01T20:09:23.876Z,4.12
2023-02-01T20:11:54.264Z,4.16
2023-02-01T20:14:26.057Z,4.16
2023-02-01T20:16:54.582Z,4.14
2023-02-01T20:19:23.381Z,4.10
2023-02-01T20:21:51.873Z,4.04
2023-02-01T20:24:20.347Z,3.95
2023-02-01T20:26:50.095Z,3.86
2023-02-01T20:29:19.270Z,3.73
2023-02-01T20:31:47.809Z,3.56
2023-02-01T20:34:16.388Z,3.42
2023-02-01T20:36:45.058Z,3.25
2023-02-01T20:39:13.629Z,3.08
2023-02-01T20:41:54.543Z,2.88
2023-02-01T20:44:30.275Z,2.67
2023-02-01T20:46:59.116Z,2.48
2023-02-01T20:49:35.764Z,2.29
2023-02-01T20:52:10.177Z,2.11
2023-02-01T20:54:44.150Z,1.98
2023-02-01T21:06:28.490Z,1.65
2023-02-01T21:09:00.656Z,1.58
2023-02-01T21:11:36.257Z,1.56
2023-02-01T21:14:05.442Z,1.51
2023-02-01T21:16:39.517Z,1.46
2023-02-01T21:19:10.072Z,1.42
2023-02-01T21:21:48.989Z,1.40
2023-02-01T21:24:25.668Z,1.39
2023-02-01T21:27:01.708Z,1.39
2023-02-01T21:29:30.274Z,1.41
2023-02-01T21:31:59.694Z,1.42
2023-02-01T21:34:28.302Z,1.43
2023-02-01T21:37:02.097Z,1.43
2023-02-01T21:39:33.992Z,1.43
2023-02-01T21:42:16.505Z,1.44
2023-02-01T21:44:54.033Z,1.45
2023-02-01T21:47:31.384Z,1.47
2023-02-01T21:50:18.951Z,1.49
2023-02-01T21:52:56.827Z,1.52
2023-02-01T21:55:25.825Z,1.54
2023-02-01T21:57:59.997Z,1.56
2023-02-01T22:00:31.905Z,1.59
2023-02-01T22:03:03.813Z,1.62
2023-02-01T22:05:38.296Z,1.64
2023-02-01T22:08:12.798Z,1.68
2023-02-01T22:13:38.765Z,1.74
2023-02-01T22:16:13.495Z,1.77
2023-02-01T22:18:45.963Z,1.80
2023-02-01T22:21:17.980Z,1.83
2023-02-01T22:26:48.107Z,1.89
2023-02-01T22:29:19.377Z,1.94
2023-02-01T22:31:48.047Z,2.00
2023-02-01T22:34:23.350Z,2.05
2023-02-01T22:37:01.764Z,2.12
2023-02-01T22:39:41.201Z,2.18
2023-02-01T22:42:12.492Z,2.24
2023-02-01T22:44:45.981Z,2.28
2023-02-01T22:47:17.865Z,2.31
2023-02-01T22:49:46.929Z,2.35
2023-02-01T22:52:15.466Z,2.39
2023-02-01T22:54:43.869Z,2.42
2023-02-01T22:57:12.812Z,2.45
2023-02-01T22:59:42.290Z,2.48
2023-02-01T23:02:15.010Z,2.50
2023-02-01T23:04:43.849Z,2.53
2023-02-01T23:07:19.561Z,2.55
2023-02-01T23:09:53.598Z,2.57
2023-02-01T23:12:27.293Z,2.59
2023-02-01T23:15:10.431Z,2.61
2023-02-01T23:17:42.953Z,2.63
2023-02-01T23:20:25.260Z,2.64
2023-02-01T23:22:54.282Z,2.67
2023-02-01T23:25:23.365Z,2.68
2023-02-01T23:27:52.730Z,2.70
2023-02-01T23:30:22.473Z,2.71
2023-02-01T23:32:52.453Z,2.73
2023-02-01T23:35:23.450Z,2.74
2023-02-01T23:37:52.496Z,2.75
2023-02-01T23:40:30.020Z,2.77
2023-02-01T23:43:25.247Z,2.77
2023-02-01T23:45:59.974Z,2.79
2023-02-01T23:48:33.787Z,2.78
2023-02-01T23:51:03.673Z,2.79
2023-02-01T23:53:34.466Z,2.80
